weather.gov     
National Weather Service

Terminal Aerodrome Forecast
NWS Homepage
This page is being discontinued on March 12, 2014.
The same data is available at this site. Please update your bookmarks.
Thank you, and we apologize for the inconvenience.
Please send an email to SR-SRH.Webmaster@noaa.gov with any concerns.


Current Version
Previous Version:    01  02  03  04  05  06  07  08  09  10  11  12  13  14  15  16  17  18  19  20  21  22  23  24  25  26  27  
[Printable]
157
FTUS44 KHGX 281720
TAFSGR
TAF
KSGR 281720Z 2818/2918 VRB03KT P6SM FEW250
     FM282000 15009KT P6SM SCT250
     FM290300 18004KT P6SM SCT250
     FM290900 19003KT 4SM BR SCT015 SCT100 SCT250
     FM291100 18003KT 1SM BR SCT015 SCT100 SCT250
     FM291700 24005KT P6SM FEW020 BKN100=




157
FTUS44 KHGX 281720
TAFSGR
TAF
KSGR 281720Z 2818/2918 VRB03KT P6SM FEW250
     FM282000 15009KT P6SM SCT250
     FM290300 18004KT P6SM SCT250
     FM290900 19003KT 4SM BR SCT015 SCT100 SCT250
     FM291100 18003KT 1SM BR SCT015 SCT100 SCT250
     FM291700 24005KT P6SM FEW020 BKN100=


U.S. Dept. of Commerce
NOAA National Weather Service
1325 East West Highway
Silver Spring, MD 20910
E-mail: w-nws.webmaster@noaa.gov
Page last modified: May 16, 2007
NATIONAL WEATHER SERVICE: for Safety, for Work, for Fun - FOR LIFE